Time;durP1;ratioP1;P1;durP2;ratioP2;P2;SDS_P1;SDS_P2;PMS_P1;PMS_P2;Temp;Humidity;BMP_temperature;BMP_pressure;BME280_temperature;BME280_humidity;BME280_pressure;Samples;Min_cycle;Max_cycle;Signal;HPM_P1;HPM_P2
2022/03/04 00:01:59;;;;;;;85.70;40.20;;;;;;;0.04;100.00;99992.47;5071770;28;20687;-77
2022/03/04 00:04:26;;;;;;;84.18;40.25;;;;;;;0.08;100.00;99999.28;5071300;28;20020;-77
2022/03/04 00:06:53;;;;;;;85.50;41.92;;;;;;;0.13;100.00;100007.03;5071585;28;20040;-77
2022/03/04 00:09:20;;;;;;;69.63;35.95;;;;;;;0.13;100.00;100001.91;5070187;28;20024;-77
2022/03/04 00:11:45;;;;;;;76.70;37.55;;;;;;;0.12;100.00;100003.56;5071396;28;20638;-77
2022/03/04 00:14:11;;;;;;;65.28;33.33;;;;;;;0.10;100.00;99999.31;5071618;28;20052;-77
2022/03/04 00:16:36;;;;;;;57.55;31.02;;;;;;;0.13;100.00;100002.75;5071229;28;20481;-77
2022/03/04 00:19:12;;;;;;;82.15;38.28;;;;;;;0.18;100.00;100007.88;5048676;28;20041;-78
2022/03/04 00:21:44;;;;;;;72.45;35.38;;;;;;;0.16;100.00;100005.28;5048742;28;20037;-78
2022/03/04 00:24:11;;;;;;;68.80;35.85;;;;;;;0.08;100.00;99988.19;5048729;28;20074;-78
2022/03/04 00:26:37;;;;;;;64.95;33.13;;;;;;;0.07;100.00;99989.91;5048679;28;20567;-78
2022/03/04 00:29:03;;;;;;;65.70;33.10;;;;;;;0.05;100.00;99996.75;5048678;28;20087;-78
2022/03/04 00:31:29;;;;;;;73.40;37.70;;;;;;;0.11;100.00;99996.75;5048968;28;20171;-78
2022/03/04 00:33:55;;;;;;;79.80;38.53;;;;;;;0.17;100.00;100003.56;5052436;28;20132;-78
2022/03/04 00:36:23;;;;;;;120.57;49.55;;;;;;;0.15;100.00;99993.34;5012677;28;20133;-78
2022/03/04 00:38:50;;;;;;;79.55;37.53;;;;;;;0.18;100.00;100008.72;5012630;28;20045;-78
2022/03/04 00:41:20;;;;;;;71.38;36.28;;;;;;;0.14;100.00;100006.16;5012674;28;20072;-78
2022/03/04 00:43:46;;;;;;;83.90;40.88;;;;;;;0.14;100.00;100003.59;5012723;28;20048;-78
2022/03/04 00:46:13;;;;;;;84.35;39.92;;;;;;;0.08;100.00;99990.75;5012454;28;20481;-78
2022/03/04 00:48:39;;;;;;;85.70;41.78;;;;;;;0.12;100.00;99995.03;5012325;28;20033;-78
2022/03/04 00:51:04;;;;;;;69.97;36.83;;;;;;;0.09;100.00;99979.69;5012480;28;20169;-78
2022/03/04 00:53:30;;;;;;;72.07;35.88;;;;;;;0.14;100.00;99999.31;5012381;28;20038;-78
2022/03/04 00:55:56;;;;;;;72.30;38.17;;;;;;;0.15;100.00;100008.72;5018214;28;20045;-78
2022/03/04 00:58:22;;;;;;;93.28;45.47;;;;;;;0.12;100.00;99995.88;5015601;28;20029;-78
2022/03/04 01:00:47;;;;;;;78.10;38.67;;;;;;;0.21;100.00;100002.72;5032245;28;20099;-78
2022/03/04 01:03:12;;;;;;;67.93;36.40;;;;;;;0.21;100.00;99997.59;5032245;28;20532;-78
2022/03/04 01:05:38;;;;;;;67.80;35.60;;;;;;;0.11;100.00;99975.41;5015247;28;20029;-78
2022/03/04 01:08:04;;;;;;;80.82;40.13;;;;;;;0.15;100.00;99987.38;5065873;28;20047;-78
2022/03/04 01:10:29;;;;;;;67.97;34.80;;;;;;;0.09;100.00;99977.97;5072992;28;20020;-78
2022/03/04 01:12:55;;;;;;;69.85;35.22;;;;;;;0.20;100.00;99999.31;5074520;28;20031;-78
2022/03/04 01:15:20;;;;;;;103.88;49.67;;;;;;;0.11;100.00;99975.41;5074437;28;20031;-78
2022/03/04 01:17:45;;;;;;;69.22;36.15;;;;;;;0.21;100.00;99979.69;5073992;28;20033;-78
2022/03/04 01:20:11;;;;;;;73.53;38.70;;;;;;;0.18;100.00;99975.41;5072805;28;20039;-78
2022/03/04 01:22:37;;;;;;;75.60;39.92;;;;;;;0.10;100.00;99960.91;5074120;28;20064;-78
2022/03/04 01:25:03;;;;;;;68.80;34.05;;;;;;;0.11;100.00;99963.47;5056223;28;20016;-78
2022/03/04 01:27:28;;;;;;;54.35;31.27;;;;;;;0.22;100.00;99976.28;5073995;28;20033;-78
2022/03/04 01:29:54;;;;;;;59.88;30.98;;;;;;;0.26;100.00;99978.00;5074060;28;20028;-78
2022/03/04 01:32:19;;;;;;;57.25;29.98;;;;;;;0.22;100.00;99969.44;5074199;28;20044;-78
2022/03/04 01:34:45;;;;;;;57.03;31.27;;;;;;;0.26;100.00;99972.03;5073492;28;20029;-78
2022/03/04 01:37:10;;;;;;;53.92;30.42;;;;;;;0.26;100.00;99977.16;5056048;28;20076;-78
2022/03/04 01:39:37;;;;;;;59.85;32.67;;;;;;;0.28;100.00;99981.41;5073449;28;20195;-78
2022/03/04 01:42:02;;;;;;;59.10;33.05;;;;;;;0.24;100.00;99972.00;5074028;28;20083;-78
2022/03/04 01:44:28;;;;;;;68.65;36.65;;;;;;;0.27;100.00;99971.16;5072358;28;20033;-78
2022/03/04 01:46:53;;;;;;;69.20;36.92;;;;;;;0.29;100.00;99970.28;5072189;28;20040;-78
2022/03/04 01:49:19;;;;;;;66.10;34.13;;;;;;;0.32;100.00;99974.56;5073490;28;20024;-78
2022/03/04 01:51:45;;;;;;;60.40;33.95;;;;;;;0.30;100.00;99977.16;5073369;28;20054;-78
2022/03/04 01:54:10;;;;;;;63.78;33.28;;;;;;;0.33;100.00;99976.28;5073439;28;20494;-78
2022/03/04 01:56:35;;;;;;;64.97;36.08;;;;;;;0.30;100.00;99973.72;5072006;28;20379;-78
2022/03/04 01:59:01;;;;;;;69.70;38.10;;;;;;;0.28;100.00;99967.75;5073812;28;20039;-78
2022/03/04 02:01:26;;;;;;;65.07;36.03;;;;;;;0.31;100.00;99970.31;5073423;28;20547;-78
2022/03/04 02:03:52;;;;;;;71.25;37.00;;;;;;;0.31;100.00;99970.31;5072995;28;20476;-78
2022/03/04 02:06:17;;;;;;;70.07;36.90;;;;;;;0.33;100.00;99981.41;5055198;28;20028;-78
2022/03/04 02:08:43;;;;;;;79.55;41.75;;;;;;;0.35;100.00;99978.00;5071833;28;20024;-78
2022/03/04 02:11:08;;;;;;;65.90;35.63;;;;;;;0.38;100.00;99980.56;5073182;28;20079;-78
2022/03/04 02:13:35;;;;;;;61.10;34.22;;;;;;;0.34;100.00;99965.16;5071600;28;20082;-78
2022/03/04 02:16:00;;;;;;;74.07;39.17;;;;;;;0.35;100.00;99974.59;5073122;28;20074;-78
2022/03/04 02:18:26;;;;;;;64.43;35.25;;;;;;;0.36;100.00;99964.31;5071715;28;20020;-78
2022/03/04 02:20:52;;;;;;;60.22;33.13;;;;;;;0.33;100.00;99956.63;5072741;28;20037;-78
2022/03/04 02:23:19;;;;;;;68.53;35.65;;;;;;;0.29;100.00;99957.47;5070455;28;20040;-78
2022/03/04 02:25:49;;;;;;;72.55;38.35;;;;;;;0.37;100.00;99968.59;5070404;28;20051;-78
2022/03/04 02:28:16;;;;;;;64.72;37.08;;;;;;;0.30;100.00;99959.22;5070449;28;20036;-78
2022/03/04 02:30:42;;;;;;;62.95;34.33;;;;;;;0.38;100.00;99978.00;5070080;28;20036;-78
2022/03/04 02:33:08;;;;;;;63.47;35.70;;;;;;;0.27;100.00;99955.78;5053232;28;20101;-78
2022/03/04 02:35:35;;;;;;;58.88;33.17;;;;;;;0.42;100.00;99974.59;5070048;28;20055;-78
2022/03/04 02:38:01;;;;;;;62.85;35.28;;;;;;;0.42;100.00;99981.38;5070261;28;20044;-78
2022/03/04 02:40:27;;;;;;;62.45;34.67;;;;;;;0.36;100.00;99982.25;5070226;28;20439;-78
2022/03/04 02:42:53;;;;;;;60.75;32.78;;;;;;;0.33;100.00;99976.28;5069895;28;20044;-78
2022/03/04 02:45:18;;;;;;;62.28;33.65;;;;;;;0.38;100.00;99989.94;5069956;28;20025;-78
2022/03/04 02:47:44;;;;;;;61.72;34.92;;;;;;;0.31;100.00;99973.72;5052923;28;20028;-78
2022/03/04 02:50:10;;;;;;;62.90;35.70;;;;;;;0.32;100.00;99987.38;5069765;28;20024;-78
2022/03/04 02:52:36;;;;;;;61.25;33.53;;;;;;;0.21;100.00;99967.75;5052964;28;20044;-78
2022/03/04 02:55:01;;;;;;;59.95;33.20;;;;;;;0.31;100.00;99980.56;5055278;28;20048;-78
2022/03/04 02:57:27;;;;;;;60.95;34.53;;;;;;;0.26;100.00;99972.88;5052356;28;20055;-78
2022/03/04 02:59:52;;;;;;;65.82;36.10;;;;;;;0.32;100.00;99992.50;5052091;28;20025;-78
2022/03/04 03:02:17;;;;;;;61.95;33.38;;;;;;;0.27;100.00;99979.69;5052439;28;20040;-79
2022/03/04 03:04:43;;;;;;;63.78;36.03;;;;;;;0.30;100.00;99977.16;5052309;28;20036;-78
2022/03/04 03:07:08;;;;;;;58.92;33.33;;;;;;;0.32;100.00;99984.81;5052321;28;20028;-78
2022/03/04 03:09:34;;;;;;;65.72;35.28;;;;;;;0.19;100.00;99959.19;5052129;28;20075;-78
2022/03/04 03:12:00;;;;;;;62.85;35.28;;;;;;;0.32;100.00;99982.25;5052111;28;20388;-78
2022/03/04 03:14:25;;;;;;;56.20;32.15;;;;;;;0.24;100.00;99966.88;5052106;28;20021;-78
2022/03/04 03:16:51;;;;;;;57.53;34.33;;;;;;;0.33;100.00;99978.84;5050411;28;20419;-78
2022/03/04 03:19:16;;;;;;;56.35;33.88;;;;;;;0.35;100.00;99984.81;5052065;28;20094;-78
2022/03/04 03:21:42;;;;;;;58.63;32.92;;;;;;;0.23;100.00;99965.19;5050593;28;20028;-78
2022/03/04 03:24:07;;;;;;;63.35;35.22;;;;;;;0.36;100.00;99978.84;5050786;28;20393;-78
2022/03/04 03:26:33;;;;;;;59.47;33.20;;;;;;;0.21;100.00;99943.81;5051940;28;20162;-78
2022/03/04 03:28:59;;;;;;;59.38;32.03;;;;;;;0.32;100.00;99964.31;5051568;28;20056;-78
2022/03/04 03:31:24;;;;;;;61.10;31.40;;;;;;;0.41;100.00;99979.69;5051663;28;20025;-78
2022/03/04 03:33:50;;;;;;;62.65;32.20;;;;;;;0.32;100.00;99954.06;5068249;28;20610;-78
2022/03/04 03:36:15;;;;;;;80.25;39.38;;;;;;;0.40;100.00;99975.44;5072102;28;20025;-78
2022/03/04 03:38:40;;;;;;;63.33;35.78;;;;;;;0.30;100.00;99958.38;5053614;28;20036;-78
2022/03/04 03:41:06;;;;;;;55.55;32.70;;;;;;;0.39;100.00;99982.25;5070620;28;20039;-78
2022/03/04 03:43:31;;;;;;;60.38;34.63;;;;;;;0.39;100.00;99977.13;5053859;28;20487;-78
2022/03/04 03:45:56;;;;;;;60.08;33.95;;;;;;;0.40;100.00;99983.97;5071431;28;20032;-78
2022/03/04 03:48:22;;;;;;;62.75;34.05;;;;;;;0.36;100.00;99977.13;5070600;28;20028;-78
2022/03/04 03:50:47;;;;;;;58.65;32.03;;;;;;;0.40;100.00;99978.84;5071416;28;20039;-78
2022/03/04 03:53:13;;;;;;;60.10;32.85;;;;;;;0.32;100.00;99977.13;5053819;28;20667;-78
2022/03/04 03:55:39;;;;;;;65.60;35.15;;;;;;;0.33;100.00;99972.00;5071500;28;20094;-78
2022/03/04 03:58:05;;;;;;;60.72;32.78;;;;;;;0.41;100.00;99988.22;5053708;28;20064;-78
2022/03/04 04:00:31;;;;;;;63.45;35.22;;;;;;;0.24;100.00;99961.75;5053673;28;20654;-78
2022/03/04 04:02:56;;;;;;;63.08;35.08;;;;;;;0.35;100.00;99984.81;5071267;28;20090;-78
2022/03/04 04:05:22;;;;;;;72.78;36.28;;;;;;;0.36;100.00;99986.53;5053637;28;20610;-78
2022/03/04 04:07:47;;;;;;;61.42;34.15;;;;;;;0.33;100.00;99983.97;5074167;28;20427;-78
2022/03/04 04:10:12;;;;;;;59.20;32.78;;;;;;;0.21;100.00;99964.31;5074125;28;20036;-78
2022/03/04 04:12:38;;;;;;;58.15;32.50;;;;;;;0.34;100.00;99981.41;5074111;28;20024;-78
2022/03/04 04:15:04;;;;;;;72.82;35.53;;;;;;;0.37;100.00;99991.63;5057399;28;20052;-78
2022/03/04 04:17:29;;;;;;;66.55;35.88;;;;;;;0.35;100.00;99983.13;5075644;28;20025;-78
2022/03/04 04:19:55;;;;;;;67.40;35.88;;;;;;;0.35;100.00;99987.38;5057088;28;20115;-78
2022/03/04 04:22:21;;;;;;;79.38;38.40;;;;;;;0.38;100.00;99992.50;5075373;28;20043;-78
2022/03/04 04:24:46;;;;;;;73.90;37.20;;;;;;;0.37;100.00;99989.06;5075026;28;20108;-78
2022/03/04 04:27:12;;;;;;;64.32;34.67;;;;;;;0.30;100.00;99974.59;5075184;28;20024;-78
2022/03/04 04:29:37;;;;;;;63.80;34.50;;;;;;;0.40;100.00;99993.38;5073760;28;20028;-78
2022/03/04 04:32:03;;;;;;;63.70;32.92;;;;;;;0.36;100.00;99979.69;5056530;28;20035;-78
2022/03/04 04:34:28;;;;;;;63.08;35.10;;;;;;;0.36;100.00;99984.81;5075018;28;20024;-78
2022/03/04 04:36:54;;;;;;;66.65;34.75;;;;;;;0.40;100.00;99978.84;5074691;28;20025;-78
2022/03/04 04:39:19;;;;;;;63.95;34.17;;;;;;;0.39;100.00;99977.13;5073738;28;20031;-78
2022/03/04 04:41:45;;;;;;;60.72;33.38;;;;;;;0.42;100.00;99979.72;5074732;28;20063;-78
2022/03/04 04:44:11;;;;;;;62.40;35.55;;;;;;;0.28;100.00;99958.34;5073619;28;20029;-78
2022/03/04 04:46:36;;;;;;;62.17;33.13;;;;;;;0.38;100.00;99977.13;5056860;28;20033;-78
2022/03/04 04:49:02;;;;;;;64.97;33.45;;;;;;;0.35;100.00;99980.56;5074616;28;20048;-78
2022/03/04 04:51:28;;;;;;;69.13;37.50;;;;;;;0.40;100.00;99980.56;5073399;28;20032;-78
2022/03/04 04:53:53;;;;;;;67.95;37.38;;;;;;;0.28;100.00;99970.31;5074399;28;20039;-78
2022/03/04 04:56:19;;;;;;;67.97;36.53;;;;;;;0.19;100.00;99948.09;5074621;28;20024;-78
2022/03/04 04:58:45;;;;;;;68.85;38.08;;;;;;;0.35;100.00;99979.69;5074343;28;20029;-78
2022/03/04 05:01:11;;;;;;;79.18;39.28;;;;;;;0.35;100.00;99978.00;5074479;28;20123;-78
2022/03/04 05:03:36;;;;;;;70.95;37.95;;;;;;;0.27;100.00;99969.44;5056666;28;20602;-78
2022/03/04 05:06:03;;;;;;;74.45;39.70;;;;;;;0.37;100.00;99980.53;5074368;28;20036;-78
2022/03/04 05:08:29;;;;;;;115.63;48.30;;;;;;;0.25;100.00;99971.13;5074668;28;20035;-78
2022/03/04 05:10:55;;;;;;;82.95;41.08;;;;;;;0.35;100.00;99984.81;5056134;28;20029;-78
2022/03/04 05:13:21;;;;;;;72.00;37.58;;;;;;;0.32;100.00;99988.22;5074320;28;20029;-78
2022/03/04 05:15:46;;;;;;;77.45;39.03;;;;;;;0.27;100.00;99974.56;5055930;28;20438;-78
2022/03/04 05:18:12;;;;;;;68.65;37.88;;;;;;;0.33;100.00;99983.97;5073983;28;20531;-78
2022/03/04 05:20:37;;;;;;;75.22;39.08;;;;;;;0.35;100.00;99984.81;5074142;28;20044;-78
2022/03/04 05:23:03;;;;;;;84.53;42.53;;;;;;;0.17;100.00;99954.91;5073891;28;20103;-78
2022/03/04 05:25:29;;;;;;;79.63;40.63;;;;;;;0.37;100.00;99994.19;5056180;28;20119;-78
2022/03/04 05:27:54;;;;;;;70.28;36.80;;;;;;;0.21;100.00;99967.75;5072492;28;20031;-78
2022/03/04 05:30:20;;;;;;;78.35;38.53;;;;;;;0.22;100.00;99968.59;5073831;28;20037;-78
2022/03/04 05:32:45;;;;;;;78.78;41.28;;;;;;;0.33;100.00;99989.09;5072213;28;20476;-78
2022/03/04 05:35:10;;;;;;;80.82;41.40;;;;;;;0.29;100.00;99975.41;5072858;28;20032;-78
2022/03/04 05:37:36;;;;;;;72.05;38.97;;;;;;;0.21;100.00;99972.00;5055984;28;20055;-78
2022/03/04 05:40:02;;;;;;;84.28;41.72;;;;;;;0.28;100.00;99980.53;5073930;28;20495;-78
2022/03/04 05:42:27;;;;;;;81.88;42.45;;;;;;;0.21;100.00;99970.31;5072321;28;20031;-78
2022/03/04 05:44:52;;;;;;;75.75;39.53;;;;;;;0.26;100.00;99983.13;5072059;28;20024;-78
2022/03/04 05:47:18;;;;;;;72.25;38.58;;;;;;;0.33;100.00;100000.19;5051062;28;20454;-78
2022/03/04 05:49:43;;;;;;;78.43;38.97;;;;;;;0.20;100.00;99983.94;5034472;28;20029;-78
2022/03/04 05:52:09;;;;;;;73.90;39.33;;;;;;;0.20;100.00;99983.94;5050885;28;20487;-78
2022/03/04 05:54:35;;;;;;;79.70;40.83;;;;;;;0.24;100.00;99990.78;5051149;28;20712;-78
2022/03/04 05:57:01;;;;;;;75.90;39.67;;;;;;;0.21;100.00;99985.69;5050724;28;20036;-78
2022/03/04 05:59:26;;;;;;;76.65;40.25;;;;;;;0.33;100.00;100001.88;5034382;28;20033;-78
2022/03/04 06:01:52;;;;;;;72.43;38.60;;;;;;;0.34;100.00;100004.47;5050779;28;20547;-78
2022/03/04 06:04:17;;;;;;;82.95;40.75;;;;;;;0.39;100.00;100014.72;5051081;28;20029;-78
2022/03/04 06:06:43;;;;;;;71.78;38.65;;;;;;;0.44;100.00;100010.44;5030725;28;20472;-78
2022/03/04 06:09:09;;;;;;;74.93;39.00;;;;;;;0.37;100.00;99994.19;5030593;28;20113;-78
2022/03/04 06:11:34;;;;;;;77.93;39.33;;;;;;;0.35;100.00;100001.06;5030719;28;20044;-78
2022/03/04 06:14:00;;;;;;;74.53;38.88;;;;;;;0.44;100.00;100021.53;5030540;28;20033;-78
2022/03/04 06:16:25;;;;;;;74.18;40.10;;;;;;;0.47;100.00;100028.41;5030648;28;20042;-78
2022/03/04 06:18:51;;;;;;;81.05;40.53;;;;;;;0.46;100.00;100030.09;5015971;28;20034;-78
2022/03/04 06:21:17;;;;;;;86.18;45.75;;;;;;;0.43;100.00;100019.84;5010812;28;20183;-78
2022/03/04 06:23:42;;;;;;;86.03;44.17;;;;;;;0.51;100.00;100030.09;5010900;28;20105;-78
2022/03/04 06:26:08;;;;;;;101.13;53.00;;;;;;;0.57;100.00;100036.94;5010660;28;20042;-78
2022/03/04 06:28:33;;;;;;;97.47;50.15;;;;;;;0.50;100.00;100016.41;4994140;28;20038;-78
2022/03/04 06:30:59;;;;;;;104.85;48.83;;;;;;;0.48;100.00;100020.69;5009888;28;20405;-78
2022/03/04 06:33:30;;;;;;;78.32;40.70;;;;;;;0.61;100.00;100052.31;5010740;28;20120;-78
2022/03/04 06:35:58;;;;;;;90.35;44.85;;;;;;;0.62;100.00;100045.47;5010518;28;20108;-78
2022/03/04 06:38:24;;;;;;;97.47;48.80;;;;;;;0.68;100.00;100050.63;5059613;28;20048;-78
2022/03/04 06:40:50;;;;;;;102.65;50.85;;;;;;;0.60;100.00;100040.34;5071097;28;20029;-78
2022/03/04 06:43:16;;;;;;;120.72;54.20;;;;;;;0.71;100.00;100051.44;5054557;28;20038;-78
2022/03/04 06:45:46;;;;;;;104.55;51.70;;;;;;;0.62;100.00;100030.94;5054663;28;20025;-78
2022/03/04 06:48:12;;;;;;;99.28;47.95;;;;;;;0.78;100.00;100060.00;5072334;28;20480;-78
2022/03/04 06:50:38;;;;;;;86.45;46.60;;;;;;;0.79;100.00;100053.16;5070981;28;20037;-78
2022/03/04 06:53:04;;;;;;;90.13;47.00;;;;;;;0.81;100.00;100057.44;5072150;28;20028;-78
2022/03/04 06:55:31;;;;;;;90.10;45.08;;;;;;;0.81;100.00;100052.31;5071020;28;20066;-78
2022/03/04 06:57:56;;;;;;;88.97;43.10;;;;;;;0.80;100.00;100055.75;5072330;28;20027;-78
2022/03/04 07:00:23;;;;;;;81.30;43.45;;;;;;;0.81;100.00;100059.16;5072353;28;20029;-78
2022/03/04 07:02:48;;;;;;;77.40;40.60;;;;;;;0.81;100.00;100062.56;5054422;28;20021;-78
2022/03/04 07:05:14;;;;;;;75.38;43.08;;;;;;;0.87;100.00;100061.69;5054013;28;20029;-78
2022/03/04 07:07:40;;;;;;;70.82;40.15;;;;;;;0.91;100.00;100059.13;5070893;28;20036;-78
2022/03/04 07:10:07;;;;;;;78.15;42.33;;;;;;;0.86;100.00;100047.19;5070511;28;20465;-78
2022/03/04 07:12:32;;;;;;;80.18;42.63;;;;;;;0.87;100.00;100046.31;5072090;28;20037;-78
2022/03/04 07:14:58;;;;;;;76.85;41.72;;;;;;;0.98;100.00;100073.66;5054175;28;20028;-78
2022/03/04 07:17:23;;;;;;;74.18;43.10;;;;;;;0.95;100.00;100055.69;5070875;28;20029;-78
2022/03/04 07:19:48;;;;;;;85.70;46.65;;;;;;;0.95;100.00;100058.28;5072315;28;20035;-78
2022/03/04 07:22:14;;;;;;;93.85;48.90;;;;;;;1.09;100.00;100073.63;5053841;28;20066;-78
2022/03/04 07:24:40;;;;;;;89.38;45.63;;;;;;;1.12;100.00;100072.78;5071985;28;20472;-78
2022/03/04 07:27:05;;;;;;;81.25;43.85;;;;;;;1.17;100.00;100077.03;5071630;28;20039;-78
2022/03/04 07:29:31;;;;;;;76.72;42.03;;;;;;;1.23;100.00;100064.22;5072342;28;20403;-78
2022/03/04 07:31:56;;;;;;;81.55;43.72;;;;;;;1.18;100.00;100044.53;5053539;28;20468;-78
2022/03/04 07:34:23;;;;;;;75.75;41.90;;;;;;;1.35;100.00;100065.91;5071923;28;20029;-78
2022/03/04 07:36:49;;;;;;;82.07;44.65;;;;;;;1.22;100.00;100036.88;5054149;28;20033;-78
2022/03/04 07:39:15;;;;;;;88.55;45.60;;;;;;;1.40;100.00;100063.34;5070345;28;20040;-78
2022/03/04 07:41:40;;;;;;;86.20;46.75;;;;;;;1.45;100.00;100077.84;5071520;28;20028;-78
2022/03/04 07:44:07;;;;;;;94.93;46.20;;;;;;;1.34;100.00;100058.19;5071605;28;20035;-78
2022/03/04 07:46:33;;;;;;;90.70;46.15;;;;;;;1.40;100.00;100066.75;5053745;28;20028;-78
2022/03/04 07:48:58;;;;;;;96.80;47.08;;;;;;;1.45;100.00;100069.28;5053600;28;20032;-78
2022/03/04 07:51:24;;;;;;;78.10;41.15;;;;;;;1.40;100.00;100056.47;5070258;28;20082;-78
2022/03/04 07:53:49;;;;;;;78.28;41.92;;;;;;;1.52;100.00;100070.13;5071947;28;20138;-78
2022/03/04 07:56:14;;;;;;;157.32;63.90;;;;;;;1.53;100.00;100066.72;5071388;28;20028;-78
2022/03/04 07:58:40;;;;;;;96.95;47.67;;;;;;;1.55;100.00;100077.81;5071512;28;20028;-77
2022/03/04 08:01:06;;;;;;;112.63;50.67;;;;;;;1.61;100.00;100088.94;5070144;28;20464;-78
2022/03/04 08:03:32;;;;;;;78.63;42.67;;;;;;;1.46;100.00;100069.28;5070346;28;20064;-78
2022/03/04 08:05:57;;;;;;;77.65;40.92;;;;;;;1.41;100.00;100068.44;5070034;28;20100;-78
2022/03/04 08:08:23;;;;;;;82.95;42.25;;;;;;;1.50;100.00;100091.50;5070142;28;20023;-78
2022/03/04 08:10:48;;;;;;;81.95;43.67;;;;;;;1.52;100.00;100082.94;5070086;28;20074;-78
2022/03/04 08:13:14;;;;;;;77.97;41.75;;;;;;;1.64;100.00;100096.59;5071450;28;20032;-78
2022/03/04 08:15:39;;;;;;;88.20;47.53;;;;;;;1.66;100.00;100081.22;5071901;28;20035;-78
2022/03/04 08:18:05;;;;;;;77.68;42.47;;;;;;;1.74;100.00;100079.47;5071287;28;20487;-78
2022/03/04 08:20:31;;;;;;;77.15;44.53;;;;;;;1.91;100.00;100100.81;5071530;28;20024;-78
2022/03/04 08:22:57;;;;;;;88.25;47.03;;;;;;;1.97;100.00;100097.34;5069831;28;20021;-78
2022/03/04 08:25:23;;;;;;;97.72;50.35;;;;;;;2.02;100.00;100093.03;5071421;28;20039;-78
2022/03/04 08:27:48;;;;;;;106.60;55.00;;;;;;;2.10;100.00;100110.97;5053681;28;20032;-77
2022/03/04 08:30:14;;;;;;;93.22;46.63;;;;;;;2.12;100.00;100107.56;5053232;28;20167;-78
2022/03/04 08:32:40;;;;;;;107.63;47.13;;;;;;;1.99;100.00;100088.78;5071222;28;20048;-77
2022/03/04 08:35:06;;;;;;;78.15;43.13;;;;;;;2.22;100.00;100114.34;5053103;28;20078;-78
2022/03/04 08:37:32;;;;;;;79.70;40.53;;;;;;;2.19;100.00;100080.09;5071221;28;20040;-78
2022/03/04 08:39:57;;;;;;;86.25;45.50;;;;;;;2.46;100.00;100112.50;5071197;28;20033;-78
2022/03/04 08:42:24;;;;;;;80.05;45.65;;;;;;;2.61;100.00;100117.56;5071391;28;20025;-78
2022/03/04 08:44:50;;;;;;;76.50;42.92;;;;;;;2.67;100.00;100093.50;5071295;28;20031;-78
2022/03/04 08:47:15;;;;;;;83.20;43.67;;;;;;;2.87;100.00;100108.81;5071104;28;20412;-78
2022/03/04 08:49:40;;;;;;;75.32;41.90;;;;;;;2.91;100.00;100108.75;5069879;28;20025;-78
2022/03/04 08:52:06;;;;;;;82.93;42.63;;;;;;;2.99;100.00;100112.13;5069432;28;20495;-77
2022/03/04 08:54:32;;;;;;;72.13;39.90;;;;;;;3.05;100.00;100115.50;5056539;28;20035;-78
2022/03/04 08:56:57;;;;;;;62.42;37.97;;;;;;;3.13;100.00;100114.56;5074477;28;20025;-78
2022/03/04 08:59:23;;;;;;;68.93;40.72;;;;;;;3.24;100.00;100122.19;5056618;28;20021;-78
2022/03/04 09:01:48;;;;;;;82.55;47.67;;;;;;;3.29;100.00;100128.16;5056792;28;20126;-78
2022/03/04 09:04:14;;;;;;;76.03;42.83;;;;;;;3.27;100.00;100119.59;5074292;28;20057;-78
2022/03/04 09:06:40;;;;;;;71.78;40.35;;;;;;;3.23;100.00;100117.91;5056465;28;20490;-78
2022/03/04 09:09:05;;;;;;;62.78;35.05;;;;;;;3.20;100.00;100115.34;5056166;28;20024;-78
2022/03/04 09:11:31;;;;;;;50.28;30.70;;;;;;;3.36;100.00;100127.22;5074283;28;20037;-78
2022/03/04 09:13:56;;;;;;;54.20;33.58;;;;;;;3.55;100.00;100130.47;5073257;28;20036;-78
2022/03/04 09:16:22;;;;;;;64.88;36.03;;;;;;;3.64;100.00;100117.50;5074155;28;20108;-78
2022/03/04 09:18:47;;;;;;;60.28;38.97;;;;;;;3.76;100.00;100121.66;5072995;28;20472;-78
2022/03/04 09:21:12;;;;;;;62.38;34.90;;;;;;;3.94;100.00;100136.06;5055952;28;20070;-78
2022/03/04 09:23:38;;;;;;;54.38;32.13;;;;;;;4.00;100.00;100131.69;5073991;28;20025;-78
2022/03/04 09:26:03;;;;;;;54.40;31.85;;;;;;;4.16;100.00;100126.31;5073711;28;20450;-78
2022/03/04 09:28:29;;;;;;;53.40;32.50;;;;;;;4.31;100.00;100139.03;5074256;28;20032;-78
2022/03/04 09:30:55;;;;;;;101.55;50.03;;;;;;;4.41;100.00;100134.59;5056039;28;20119;-78
2022/03/04 09:33:20;;;;;;;65.03;36.80;;;;;;;4.52;100.00;100137.88;5055819;28;20525;-78
2022/03/04 09:35:45;;;;;;;57.67;33.35;;;;;;;4.57;100.00;100130.06;5056005;28;20491;-78
2022/03/04 09:38:11;;;;;;;47.03;28.13;;;;;;;4.58;100.00;100124.88;5073684;28;20024;-78
2022/03/04 09:40:36;;;;;;;43.97;25.30;;;;;;;4.70;100.00;100119.53;5074143;28;20024;-78
2022/03/04 09:43:05;;;;;;;54.90;31.70;;;;;;;4.72;100.00;100115.22;5073579;28;20024;-78
2022/03/04 09:45:30;;;;;;;51.83;31.15;;;;;;;4.84;100.00;100139.13;5073880;28;20039;-78
2022/03/04 09:47:56;;;;;;;47.35;29.40;;;;;;;4.81;100.00;100139.19;5072442;28;20380;-78
2022/03/04 09:50:22;;;;;;;47.72;29.70;;;;;;;4.86;100.00;100132.22;5073508;28;20074;-78
2022/03/04 09:52:48;;;;;;;53.00;30.83;;;;;;;4.79;100.00;100109.97;5073814;28;20033;-79
2022/03/04 09:55:14;;;;;;;48.90;31.45;;;;;;;4.96;100.00;100126.03;5072173;28;20016;-78
2022/03/04 09:57:40;;;;;;;50.22;32.10;;;;;;;4.99;100.00;100120.81;5073614;28;20054;-78
2022/03/04 10:00:06;;;;;;;47.42;30.13;;;;;;;4.99;100.00;100126.84;5055240;28;20535;-78
2022/03/04 10:02:33;;;;;;;53.15;28.30;;;;;;;4.97;100.00;100115.69;5055486;28;20047;-78
2022/03/04 10:05:01;;;;;;;36.58;22.98;;;;;;;4.80;100.00;100140.88;5070875;28;20074;-78
2022/03/04 10:07:27;;;;;;;36.40;20.83;;;;;;;4.60;100.00;100143.78;5073510;28;20151;-78
2022/03/04 10:09:52;;;;;;;30.02;19.20;;;;;;;4.31;100.00;100120.97;5073455;28;20021;-78
2022/03/04 10:12:20;;;;;;;28.25;17.60;;;;;;;4.11;100.00;100128.97;5054993;28;20033;-79
2022/03/04 10:15:06;;;;;;;37.78;22.45;;;;;;;4.04;100.00;100142.78;5071921;28;20021;-78
2022/03/04 10:17:34;;;;;;;29.13;19.27;;;;;;;3.96;100.00;100147.19;5071768;28;20448;-78
2022/03/04 10:20:08;;;;;;;39.55;23.10;;;;;;;3.87;100.00;100127.53;5071690;28;20028;-78
2022/03/04 10:22:42;;;;;;;28.58;18.13;;;;;;;3.89;100.00;100145.56;5073087;28;20021;-78
2022/03/04 10:25:18;;;;;;;24.50;16.83;;;;;;;3.80;100.00;100154.25;5054776;28;20103;-78
2022/03/04 10:27:44;;;;;;;26.58;17.25;;;;;;;3.67;100.00;100132.06;5073005;28;20144;-78
2022/03/04 10:30:09;;;;;;;27.40;18.00;;;;;;;3.80;100.00;100146.53;5054385;28;20096;-78
2022/03/04 10:32:35;;;;;;;22.58;15.65;;;;;;;3.77;100.00;100125.94;5072662;28;20101;-78
2022/03/04 10:35:05;;;;;;;25.95;16.00;;;;;;;3.95;100.00;100143.75;5072813;28;20036;-78
2022/03/04 10:37:56;;;;;;;27.92;15.82;;;;;;;3.91;100.00;100142.09;5054934;28;20131;-78
2022/03/04 10:40:23;;;;;;;46.13;28.65;;;;;;;3.73;100.00;100122.53;5071197;28;20036;-78
2022/03/04 10:43:13;;;;;;;39.90;24.77;;;;;;;3.63;100.00;100131.25;5054553;28;20056;-78
2022/03/04 10:45:44;;;;;;;42.35;24.88;;;;;;;3.73;100.00;100137.16;5054358;28;20535;-78
2022/03/04 10:48:11;;;;;;;39.97;22.88;;;;;;;3.88;100.00;100143.88;5054498;28;20101;-78
2022/03/04 10:50:42;;;;;;;41.13;23.13;;;;;;;3.89;100.00;100154.16;5072405;28;20029;-79
2022/03/04 10:53:16;;;;;;;28.90;18.05;;;;;;;3.86;100.00;100143.03;5054242;28;20120;-78
2022/03/04 10:55:42;;;;;;;32.15;20.10;;;;;;;3.76;100.00;100131.97;5072662;28;20048;-78
2022/03/04 10:58:26;;;;;;;87.00;51.13;;;;;;;3.70;100.00;100152.63;5054375;28;20451;-78
2022/03/04 11:00:59;;;;;;;41.63;23.48;;;;;;;3.40;100.00;100139.19;5072344;28;20555;-78
2022/03/04 11:03:30;;;;;;;38.72;23.70;;;;;;;3.37;100.00;100156.38;5072001;28;20033;-78
2022/03/04 11:05:58;;;;;;;35.40;21.27;;;;;;;3.24;100.00;100146.22;5072438;28;20036;-78
2022/03/04 11:08:24;;;;;;;37.47;22.13;;;;;;;3.32;100.00;100150.44;5071912;28;20404;-78